Lady Eman — 5IM513 — position and weather

sailwx.info

Track history (hours):
 
Tides and Currents Weather Stations Pressure Air Temp Water Temp Dewpoint Dewpoint Depression Visibility Wind Speed Wind Dir Waves Ship Positions

Lady Eman

Last reported at 2014-Oct-17 09:05 UTC. Time now 2014-Oct-22 01:49 UTC.
Position N 44°36' E 033°25'.

Length 92 m; draft 4 m.

Type: Cargo ship. MMSI: 677041300.

Date/timePositionNaut miles runAvg speedWind from/ knotsBaromVisibWave heightAir tempDewpointWater temp
2014-Oct-17 09:05N 44°36' E 033°25'2 2.8
2014-Oct-17 08:31N 44°37' E 033°25'1 0.7
2014-Oct-17 07:32N 44°37' E 033°25'0 0.0
2014-Oct-17 06:22N 44°37' E 033°25'0 0.0
2014-Oct-17 05:28N 44°37' E 033°25'0 0.0
2014-Oct-17 04:33N 44°37' E 033°25'0 0.0
2014-Oct-17 03:33N 44°37' E 033°25'0 0.0
2014-Oct-17 02:33N 44°37' E 033°25'0 0.1
2014-Oct-17 01:10N 44°37' E 033°25'0 0.0
2014-Oct-17 00:28N 44°37' E 033°25'0 0.0
2014-Oct-16 23:28N 44°37' E 033°25'0 0.0
2014-Oct-16 22:31N 44°37' E 033°25'0 0.0
2014-Oct-16 21:28N 44°37' E 033°25'0 0.0
2014-Oct-16 20:31N 44°37' E 033°25'0 0.0
2014-Oct-16 19:25N 44°37' E 033°25'0 0.0
2014-Oct-16 18:33N 44°37' E 033°25'0 0.1
2014-Oct-16 17:24N 44°37' E 033°25'0 0.0
2014-Oct-16 16:33N 44°37' E 033°25'0 0.0
2014-Oct-16 15:33N 44°37' E 033°25'0 0.0
2014-Oct-16 14:31N 44°37' E 033°25'0 0.0
2014-Oct-16 13:32N 44°37' E 033°25'0 0.0
2014-Oct-16 12:32N 44°37' E 033°25'0 0.0
2014-Oct-16 03:33N 44°37' E 033°25'0 0.0
2014-Oct-16 02:33N 44°37' E 033°25'0 0.0
2014-Oct-16 01:15N 44°37' E 033°25'0 0.0
2014-Oct-16 00:33N 44°37' E 033°25'1 1.1
2014-Oct-15 23:33N 44°37' E 033°24'  
2014-Oct-13 00:18N 37°57' E 025°53'9 9.9
2014-Oct-12 23:26N 37°48' E 025°55'10 9.6
2014-Oct-12 22:24N 37°39' E 025°55'8 9.2
2014-Oct-12 21:33N 37°31' E 025°56'10 9.3
2014-Oct-12 20:30N 37°24' E 026°05'1010.7
2014-Oct-12 19:33N 37°18' E 026°15'1110.6
2014-Oct-12 18:33N 37°11' E 026°25'39 9.2
2014-Oct-12 14:19N 36°39' E 026°53'432 9.8
2014-Oct-10 18:25N 35°00' E 035°31'  
Track history (hours):
 
Tides and Currents Weather Stations Pressure Air Temp Water Temp Dewpoint Dewpoint Depression Visibility Wind Speed Wind Dir Waves Ship Positions

Lady Eman

Last reported at 2014-Oct-17 09:05 UTC. Time now 2014-Oct-22 01:49 UTC.
Position N 44°36' E 033°25'.

Length 92 m; draft 4 m.

Type: Cargo ship. MMSI: 677041300.

Date/timePositionNaut miles runAvg speedWind from/ knotsBaromVisibWave heightAir tempDewpointWater temp
2014-Oct-17 09:05N 44°36' E 033°25'2 2.8
2014-Oct-17 08:31N 44°37' E 033°25'1 0.7
2014-Oct-17 07:32N 44°37' E 033°25'0 0.0
2014-Oct-17 06:22N 44°37' E 033°25'0 0.0
2014-Oct-17 05:28N 44°37' E 033°25'0 0.0
2014-Oct-17 04:33N 44°37' E 033°25'0 0.0
2014-Oct-17 03:33N 44°37' E 033°25'0 0.0
2014-Oct-17 02:33N 44°37' E 033°25'0 0.1
2014-Oct-17 01:10N 44°37' E 033°25'0 0.0
2014-Oct-17 00:28N 44°37' E 033°25'0 0.0
2014-Oct-16 23:28N 44°37' E 033°25'0 0.0
2014-Oct-16 22:31N 44°37' E 033°25'0 0.0
2014-Oct-16 21:28N 44°37' E 033°25'0 0.0
2014-Oct-16 20:31N 44°37' E 033°25'0 0.0
2014-Oct-16 19:25N 44°37' E 033°25'0 0.0
2014-Oct-16 18:33N 44°37' E 033°25'0 0.1
2014-Oct-16 17:24N 44°37' E 033°25'0 0.0
2014-Oct-16 16:33N 44°37' E 033°25'0 0.0
2014-Oct-16 15:33N 44°37' E 033°25'0 0.0
2014-Oct-16 14:31N 44°37' E 033°25'0 0.0
2014-Oct-16 13:32N 44°37' E 033°25'0 0.0
2014-Oct-16 12:32N 44°37' E 033°25'0 0.0
2014-Oct-16 03:33N 44°37' E 033°25'0 0.0
2014-Oct-16 02:33N 44°37' E 033°25'0 0.0
2014-Oct-16 01:15N 44°37' E 033°25'0 0.0
2014-Oct-16 00:33N 44°37' E 033°25'1 1.1
2014-Oct-15 23:33N 44°37' E 033°24'  
2014-Oct-13 00:18N 37°57' E 025°53'9 9.9
2014-Oct-12 23:26N 37°48' E 025°55'10 9.6
2014-Oct-12 22:24N 37°39' E 025°55'8 9.2
2014-Oct-12 21:33N 37°31' E 025°56'10 9.3
2014-Oct-12 20:30N 37°24' E 026°05'1010.7
2014-Oct-12 19:33N 37°18' E 026°15'1110.6
2014-Oct-12 18:33N 37°11' E 026°25'39 9.2
2014-Oct-12 14:19N 36°39' E 026°53'432 9.8
2014-Oct-10 18:25N 35°00' E 035°31'  

Dump ship's entire track history